Time;durP1;ratioP1;P1;durP2;ratioP2;P2;SDS_P1;SDS_P2;PMS_P1;PMS_P2;Temp;Humidity;BMP_temperature;BMP_pressure;BME280_temperature;BME280_humidity;BME280_pressure;Samples;Min_cycle;Max_cycle;Signal;HPM_P1;HPM_P2
2023/09/17 00:00:03;;;;;;;;;;;;;;;;;;;;;
2023/09/17 00:00:41;;;;;;;7.32;6.57;;;;;;;;;;489910;28;922;-80
2023/09/17 00:01:01;;;;;;;7.72;6.25;;;;;;;;;;484191;28;1248;-80
2023/09/17 00:01:23;;;;;;;7.00;6.30;;;;;;;;;;492485;28;1435;-80
2023/09/17 00:01:41;;;;;;;8.90;6.55;;;;;;;;;;485006;28;1113;-79
2023/09/17 00:02:00;;;;;;;8.50;6.57;;;;;;;;;;483644;28;1317;-83
2023/09/17 00:02:17;;;;;;;6.88;6.10;;;;;;;;;;490939;28;1350;-79
2023/09/17 00:02:37;;;;;;;8.07;6.30;;;;;;;;;;483418;28;1324;-79
2023/09/17 00:02:55;;;;;;;8.48;6.50;;;;;;;;;;482424;28;1465;-79
2023/09/17 00:03:12;;;;;;;7.50;6.20;;;;;;;;;;491090;28;1185;-79
2023/09/17 00:03:33;;;;;;;6.80;6.00;;;;;;;;;;481374;28;1186;-79
2023/09/17 00:04:13;;;;;;;8.00;6.53;;;;;;;;;;482579;28;1392;-79
2023/09/17 00:04:40;;;;;;;6.88;6.20;;;;;;;;;;476479;28;1233;-79
2023/09/17 00:04:59;;;;;;;6.95;6.22;;;;;;;;;;480610;28;1195;-79
2023/09/17 00:05:18;;;;;;;8.23;6.78;;;;;;;;;;492618;28;1450;-80
2023/09/17 00:05:39;;;;;;;8.00;6.53;;;;;;;;;;481058;28;1160;-80
2023/09/17 00:06:00;;;;;;;9.02;7.07;;;;;;;;;;480226;28;1058;-79
2023/09/17 00:06:20;;;;;;;7.85;7.03;;;;;;;;;;489951;28;1271;-80
2023/09/17 00:06:46;;;;;;;8.30;6.68;;;;;;;;;;481936;28;1291;-80
2023/09/17 00:07:26;;;;;;;8.25;7.45;;;;;;;;;;485979;28;1092;-79
2023/09/17 00:08:05;;;;;;;8.60;7.70;;;;;;;;;;483341;28;1195;-80
2023/09/17 00:08:28;;;;;;;9.02;7.60;;;;;;;;;;488956;28;1315;-79
2023/09/17 00:09:11;;;;;;;8.95;7.90;;;;;;;;;;480778;28;1204;-79
2023/09/17 00:09:47;;;;;;;9.70;8.70;;;;;;;;;;484998;28;1074;-80
2023/09/17 00:10:03;;;;;;;10.95;8.65;;;;;;;;;;482586;28;1189;-80
2023/09/17 00:10:25;;;;;;;10.63;8.63;;;;;;;;;;495264;28;1210;-80
2023/09/17 00:10:56;;;;;;;10.10;8.90;;;;;;;;;;485972;28;1085;-79
2023/09/17 00:11:25;;;;;;;9.98;8.98;;;;;;;;;;488090;28;1326;-79
2023/09/17 00:11:47;;;;;;;9.90;8.90;;;;;;;;;;482266;28;1213;-80
2023/09/17 00:12:28;;;;;;;9.60;8.60;;;;;;;;;;492672;28;1238;-79
2023/09/17 00:12:55;;;;;;;10.23;9.05;;;;;;;;;;489720;28;1161;-79
2023/09/17 00:13:12;;;;;;;9.95;8.98;;;;;;;;;;489960;28;1367;-79
2023/09/17 00:13:38;;;;;;;10.40;8.82;;;;;;;;;;488979;28;1231;-79
2023/09/17 00:13:59;;;;;;;9.32;8.40;;;;;;;;;;483272;28;1418;-79
2023/09/17 00:14:22;;;;;;;9.00;8.18;;;;;;;;;;492995;28;1405;-82
2023/09/17 00:15:03;;;;;;;9.93;8.30;;;;;;;;;;482206;28;1544;-79
2023/09/17 00:16:08;;;;;;;9.85;7.70;;;;;;;;;;490525;28;1300;-80
2023/09/17 00:16:31;;;;;;;8.32;7.45;;;;;;;;;;490390;28;1402;-80
2023/09/17 00:17:02;;;;;;;8.18;7.00;;;;;;;;;;484922;28;968;-79
2023/09/17 00:18:03;;;;;;;8.02;7.10;;;;;;;;;;485895;28;1571;-79
2023/09/17 00:18:40;;;;;;;7.80;6.97;;;;;;;;;;490692;28;1303;-79
2023/09/17 00:19:03;;;;;;;8.80;7.00;;;;;;;;;;484312;28;1391;-80
2023/09/17 00:19:32;;;;;;;8.32;6.82;;;;;;;;;;485978;28;1419;-80
2023/09/17 00:20:05;;;;;;;7.75;7.00;;;;;;;;;;483763;28;1300;-80
2023/09/17 00:20:40;;;;;;;8.77;6.57;;;;;;;;;;490153;28;1279;-80
2023/09/17 00:21:10;;;;;;;7.70;6.95;;;;;;;;;;487634;28;1140;-79
2023/09/17 00:21:35;;;;;;;7.65;6.85;;;;;;;;;;487191;28;1135;-79
2023/09/17 00:22:03;;;;;;;8.35;6.93;;;;;;;;;;488693;28;1104;-79
2023/09/17 00:22:33;;;;;;;7.57;6.78;;;;;;;;;;488686;28;1361;-79
2023/09/17 00:23:03;;;;;;;7.45;6.75;;;;;;;;;;485586;28;1149;-79
2023/09/17 00:23:26;;;;;;;7.80;6.82;;;;;;;;;;489741;28;1209;-79
2023/09/17 00:24:02;;;;;;;7.10;6.40;;;;;;;;;;485404;28;1142;-79
2023/09/17 00:24:25;;;;;;;7.22;6.53;;;;;;;;;;494159;28;1360;-80
2023/09/17 00:24:41;;;;;;;8.38;6.70;;;;;;;;;;483003;28;1737;-79
2023/09/17 00:25:02;;;;;;;8.50;6.47;;;;;;;;;;482175;28;1142;-79
2023/09/17 00:25:22;;;;;;;7.40;6.70;;;;;;;;;;491980;28;1413;-79
2023/09/17 00:25:40;;;;;;;7.50;6.80;;;;;;;;;;481931;28;1384;-79
2023/09/17 00:26:00;;;;;;;7.50;6.72;;;;;;;;;;482366;28;1295;-79
2023/09/17 00:26:24;;;;;;;7.57;6.88;;;;;;;;;;491350;28;983;-79
2023/09/17 00:26:50;;;;;;;7.50;6.43;;;;;;;;;;489501;28;1149;-79
2023/09/17 00:27:33;;;;;;;7.60;6.65;;;;;;;;;;495470;28;1508;-79
2023/09/17 00:27:48;;;;;;;6.80;6.10;;;;;;;;;;490936;28;1114;-79
2023/09/17 00:28:06;;;;;;;7.00;6.30;;;;;;;;;;489768;28;1159;-79
2023/09/17 00:28:28;;;;;;;7.32;6.63;;;;;;;;;;489390;28;1158;-79
2023/09/17 00:28:45;;;;;;;8.15;6.93;;;;;;;;;;483957;28;1355;-79
2023/09/17 00:29:05;;;;;;;8.57;7.00;;;;;;;;;;485881;28;982;-79
2023/09/17 00:29:23;;;;;;;8.32;6.80;;;;;;;;;;488527;28;1319;-79
2023/09/17 00:29:40;;;;;;;8.68;6.40;;;;;;;;;;482980;28;1389;-79
2023/09/17 00:30:07;;;;;;;8.23;6.65;;;;;;;;;;481503;28;2027;-79
2023/09/17 00:30:27;;;;;;;7.95;6.97;;;;;;;;;;484976;28;1482;-79
2023/09/17 00:30:48;;;;;;;7.63;6.75;;;;;;;;;;479347;28;1295;-79
2023/09/17 00:31:05;;;;;;;7.50;6.70;;;;;;;;;;488404;28;1165;-79
2023/09/17 00:31:28;;;;;;;7.03;6.32;;;;;;;;;;488817;28;1400;-80
2023/09/17 00:31:46;;;;;;;7.18;6.47;;;;;;;;;;482925;28;1282;-79
2023/09/17 00:32:04;;;;;;;7.65;6.85;;;;;;;;;;484292;28;1224;-79
2023/09/17 00:32:29;;;;;;;7.38;6.68;;;;;;;;;;488600;28;1240;-80
2023/09/17 00:32:53;;;;;;;7.22;6.53;;;;;;;;;;480196;28;1536;-80
2023/09/17 00:33:10;;;;;;;7.50;6.80;;;;;;;;;;490535;28;1218;-80
2023/09/17 00:33:30;;;;;;;7.43;6.72;;;;;;;;;;486126;28;1352;-79
2023/09/17 00:33:52;;;;;;;7.50;6.47;;;;;;;;;;484939;28;1309;-80
2023/09/17 00:34:11;;;;;;;7.10;6.40;;;;;;;;;;486891;28;1285;-79
2023/09/17 00:34:30;;;;;;;7.72;6.93;;;;;;;;;;484809;28;1307;-80
2023/09/17 00:34:56;;;;;;;7.65;6.72;;;;;;;;;;483029;28;1190;-79
2023/09/17 00:35:34;;;;;;;7.40;6.50;;;;;;;;;;486778;28;1023;-79
2023/09/17 00:35:58;;;;;;;7.13;6.40;;;;;;;;;;487048;28;1233;-79
2023/09/17 00:36:22;;;;;;;7.13;6.43;;;;;;;;;;494472;28;1338;-79
2023/09/17 00:36:46;;;;;;;7.50;6.80;;;;;;;;;;482837;28;1226;-79
2023/09/17 00:37:03;;;;;;;7.32;6.63;;;;;;;;;;487188;28;1308;-79
2023/09/17 00:37:33;;;;;;;7.93;6.65;;;;;;;;;;486715;28;1165;-79
2023/09/17 00:37:57;;;;;;;7.60;6.50;;;;;;;;;;479321;28;1498;-79
2023/09/17 00:38:27;;;;;;;6.95;6.28;;;;;;;;;;485317;28;1411;-80
2023/09/17 00:38:57;;;;;;;6.90;6.20;;;;;;;;;;483873;28;1133;-80
2023/09/17 00:39:25;;;;;;;7.15;6.43;;;;;;;;;;492029;28;1408;-79
2023/09/17 00:39:45;;;;;;;7.28;6.57;;;;;;;;;;481427;28;1830;-79
2023/09/17 00:40:05;;;;;;;7.40;6.60;;;;;;;;;;485006;28;1300;-79
2023/09/17 00:40:31;;;;;;;8.20;6.70;;;;;;;;;;493043;28;1246;-79
2023/09/17 00:40:59;;;;;;;7.18;6.43;;;;;;;;;;484920;28;1304;-79
2023/09/17 00:41:21;;;;;;;7.15;6.35;;;;;;;;;;487501;28;1351;-79
2023/09/17 00:41:43;;;;;;;7.03;6.35;;;;;;;;;;486433;28;1195;-79
2023/09/17 00:42:01;;;;;;;7.47;6.68;;;;;;;;;;482844;28;1550;-79
2023/09/17 00:42:23;;;;;;;7.20;6.50;;;;;;;;;;488676;28;1398;-79
2023/09/17 00:42:44;;;;;;;6.90;6.20;;;;;;;;;;478924;28;1326;-80
2023/09/17 00:43:02;;;;;;;6.35;5.75;;;;;;;;;;481706;28;1460;-80
2023/09/17 00:43:19;;;;;;;6.60;6.00;;;;;;;;;;487541;28;1826;-80
2023/09/17 00:43:39;;;;;;;6.88;6.18;;;;;;;;;;483988;28;1299;-80
2023/09/17 00:44:02;;;;;;;6.50;5.80;;;;;;;;;;483315;28;1050;-79
2023/09/17 00:44:27;;;;;;;7.05;6.28;;;;;;;;;;487909;28;1260;-80
2023/09/17 00:44:47;;;;;;;7.38;6.35;;;;;;;;;;481713;28;1259;-79
2023/09/17 00:45:04;;;;;;;7.43;6.35;;;;;;;;;;481856;28;1373;-79
2023/09/17 00:45:31;;;;;;;6.97;6.25;;;;;;;;;;487457;28;1268;-79
2023/09/17 00:45:49;;;;;;;7.68;6.20;;;;;;;;;;481126;28;1289;-80
2023/09/17 00:46:06;;;;;;;7.50;6.00;;;;;;;;;;486045;28;1137;-80
2023/09/17 00:46:29;;;;;;;7.00;6.32;;;;;;;;;;487708;28;1134;-79
2023/09/17 00:46:53;;;;;;;7.45;6.75;;;;;;;;;;481433;28;1418;-80
2023/09/17 00:47:10;;;;;;;7.10;6.40;;;;;;;;;;487189;28;1411;-79
2023/09/17 00:47:34;;;;;;;7.03;6.32;;;;;;;;;;482106;28;1073;-80
2023/09/17 00:47:52;;;;;;;7.15;6.45;;;;;;;;;;481876;28;1191;-79
2023/09/17 00:48:12;;;;;;;6.60;6.00;;;;;;;;;;487374;28;1454;-78
2023/09/17 00:48:31;;;;;;;7.15;6.40;;;;;;;;;;489169;28;1302;-80
2023/09/17 00:48:57;;;;;;;7.45;6.53;;;;;;;;;;479203;28;1066;-79
2023/09/17 00:49:16;;;;;;;7.45;6.40;;;;;;;;;;490083;28;1238;-79
2023/09/17 00:49:32;;;;;;;7.53;6.35;;;;;;;;;;480188;28;1735;-79
2023/09/17 00:49:49;;;;;;;8.18;6.53;;;;;;;;;;481376;28;2007;-79
2023/09/17 00:50:12;;;;;;;7.25;6.55;;;;;;;;;;486069;28;1833;-79
2023/09/17 00:50:40;;;;;;;6.97;6.20;;;;;;;;;;492426;28;1337;-80
2023/09/17 00:50:59;;;;;;;7.30;6.32;;;;;;;;;;484190;28;1596;-80
2023/09/17 00:51:19;;;;;;;7.30;6.25;;;;;;;;;;488462;28;1314;-80
2023/09/17 00:51:40;;;;;;;7.28;6.53;;;;;;;;;;491541;28;1265;-80
2023/09/17 00:52:21;;;;;;;7.45;6.53;;;;;;;;;;488161;28;1163;-80
2023/09/17 00:52:48;;;;;;;7.75;6.45;;;;;;;;;;483781;28;1158;-79
2023/09/17 00:53:05;;;;;;;7.18;6.13;;;;;;;;;;490250;28;1341;-79
2023/09/17 00:53:24;;;;;;;6.75;6.05;;;;;;;;;;489857;28;1137;-79
2023/09/17 00:53:52;;;;;;;8.30;6.50;;;;;;;;;;482959;28;1161;-79
2023/09/17 00:54:10;;;;;;;8.38;6.13;;;;;;;;;;487021;28;1130;-79
2023/09/17 00:54:29;;;;;;;7.38;6.15;;;;;;;;;;485285;28;1147;-80
2023/09/17 00:54:51;;;;;;;7.80;6.35;;;;;;;;;;483328;28;1307;-79
2023/09/17 00:55:10;;;;;;;6.97;6.22;;;;;;;;;;486137;28;1354;-79
2023/09/17 00:55:31;;;;;;;7.35;6.55;;;;;;;;;;484509;28;1403;-79
2023/09/17 00:55:49;;;;;;;7.20;6.50;;;;;;;;;;481071;28;1338;-79
2023/09/17 00:56:06;;;;;;;7.30;6.60;;;;;;;;;;483792;28;992;-79
2023/09/17 00:56:25;;;;;;;7.15;6.45;;;;;;;;;;487338;28;1608;-84
2023/09/17 00:56:44;;;;;;;7.07;6.35;;;;;;;;;;482499;28;1172;-80
2023/09/17 00:57:05;;;;;;;8.55;6.47;;;;;;;;;;487244;28;1268;-80
2023/09/17 00:57:23;;;;;;;8.15;6.65;;;;;;;;;;491146;28;1177;-80
2023/09/17 00:57:48;;;;;;;9.32;6.57;;;;;;;;;;484026;28;1051;-79
2023/09/17 00:58:04;;;;;;;8.73;6.80;;;;;;;;;;483383;28;1165;-81
2023/09/17 00:58:23;;;;;;;8.85;6.70;;;;;;;;;;489003;28;1604;-80
2023/09/17 00:58:50;;;;;;;8.18;6.65;;;;;;;;;;481605;28;1137;-80
2023/09/17 00:59:07;;;;;;;7.53;6.80;;;;;;;;;;485095;28;1394;-79
2023/09/17 00:59:26;;;;;;;7.60;6.80;;;;;;;;;;488035;28;1413;-80
2023/09/17 00:59:51;;;;;;;7.85;6.57;;;;;;;;;;478571;28;1190;-79
2023/09/17 01:00:14;;;;;;;7.05;6.28;;;;;;;;;;498062;28;1141;-79
2023/09/17 01:01:03;;;;;;;;;;;;;;;;;;;;;
2023/09/17 01:01:19;;;;;;;7.97;6.50;;;;;;;;;;491041;28;1256;-79
2023/09/17 01:01:42;;;;;;;7.22;6.50;;;;;;;;;;481254;28;2053;-79
2023/09/17 01:02:02;;;;;;;7.07;6.40;;;;;;;;;;479422;28;1465;-79
2023/09/17 01:02:26;;;;;;;6.93;6.28;;;;;;;;;;487309;28;1553;-79
2023/09/17 01:02:46;;;;;;;7.75;6.68;;;;;;;;;;526775;23;3736;-72
2023/09/17 01:03:02;;;;;;;7.47;6.77;;;;;;;;;;476036;28;3095;-71
2023/09/17 01:03:18;;;;;;;7.60;6.80;;;;;;;;;;483360;28;1192;-71
2023/09/17 01:03:36;;;;;;;7.78;6.97;;;;;;;;;;490567;28;1043;-71
2023/09/17 01:03:52;;;;;;;7.65;6.93;;;;;;;;;;489589;28;1072;-71
2023/09/17 01:04:10;;;;;;;7.57;6.78;;;;;;;;;;486519;28;1166;-71
2023/09/17 01:04:27;;;;;;;7.82;6.95;;;;;;;;;;486324;28;1231;-71
2023/09/17 01:04:43;;;;;;;8.10;7.32;;;;;;;;;;484687;28;1227;-71
2023/09/17 01:04:58;;;;;;;7.82;7.03;;;;;;;;;;483639;28;1086;-71
2023/09/17 01:05:14;;;;;;;7.93;6.72;;;;;;;;;;483199;28;969;-71
2023/09/17 01:05:36;;;;;;;8.35;6.90;;;;;;;;;;483530;28;1036;-71
2023/09/17 01:05:53;;;;;;;8.40;6.85;;;;;;;;;;483922;28;1022;-71
2023/09/17 01:06:11;;;;;;;8.63;6.72;;;;;;;;;;485651;28;979;-71
2023/09/17 01:06:28;;;;;;;7.93;6.68;;;;;;;;;;485134;28;1361;-71
2023/09/17 01:06:43;;;;;;;7.40;6.65;;;;;;;;;;485662;28;1267;-71
2023/09/17 01:07:00;;;;;;;7.00;6.30;;;;;;;;;;485325;28;1000;-71
2023/09/17 01:07:16;;;;;;;6.95;6.30;;;;;;;;;;486191;28;1073;-71
2023/09/17 01:07:33;;;;;;;7.10;6.40;;;;;;;;;;485678;28;1460;-71
2023/09/17 01:07:49;;;;;;;7.20;6.40;;;;;;;;;;485498;28;1053;-71
2023/09/17 01:08:11;;;;;;;7.65;6.55;;;;;;;;;;484951;28;1312;-71
2023/09/17 01:08:27;;;;;;;7.60;6.70;;;;;;;;;;487153;28;1191;-71
2023/09/17 01:08:44;;;;;;;7.30;6.35;;;;;;;;;;487033;28;1096;-71
2023/09/17 01:09:00;;;;;;;7.85;6.50;;;;;;;;;;486676;28;1087;-71
2023/09/17 01:09:16;;;;;;;7.32;6.55;;;;;;;;;;487554;28;1001;-71
2023/09/17 01:09:33;;;;;;;7.20;6.50;;;;;;;;;;488169;28;1066;-71
2023/09/17 01:09:50;;;;;;;6.97;6.28;;;;;;;;;;488485;28;2001;-71
2023/09/17 01:10:06;;;;;;;8.27;6.30;;;;;;;;;;488200;28;1149;-71
2023/09/17 01:10:22;;;;;;;9.07;6.55;;;;;;;;;;489129;28;1073;-71
2023/09/17 01:10:41;;;;;;;8.27;6.55;;;;;;;;;;490238;28;1025;-71
2023/09/17 01:10:57;;;;;;;8.15;6.60;;;;;;;;;;490040;28;1096;-71
2023/09/17 01:11:13;;;;;;;6.93;6.22;;;;;;;;;;489284;28;1040;-71
2023/09/17 01:11:29;;;;;;;7.13;6.23;;;;;;;;;;489475;28;1050;-71
2023/09/17 01:11:44;;;;;;;7.38;6.30;;;;;;;;;;489663;28;939;-71
2023/09/17 01:12:01;;;;;;;7.17;6.47;;;;;;;;;;488519;28;1178;-71
2023/09/17 01:12:17;;;;;;;7.65;6.43;;;;;;;;;;488942;28;1054;-71
2023/09/17 01:12:33;;;;;;;7.38;6.20;;;;;;;;;;489785;28;1233;-71
2023/09/17 01:12:49;;;;;;;7.47;6.35;;;;;;;;;;487846;28;1041;-71
2023/09/17 01:13:05;;;;;;;7.65;6.55;;;;;;;;;;487682;28;1255;-71
2023/09/17 01:13:22;;;;;;;7.28;6.50;;;;;;;;;;486774;28;1100;-71
2023/09/17 01:13:42;;;;;;;7.35;6.55;;;;;;;;;;487236;28;1126;-71
2023/09/17 01:14:10;;;;;;;8.02;6.80;;;;;;;;;;487160;28;1069;-71
2023/09/17 01:14:26;;;;;;;8.02;6.85;;;;;;;;;;487196;28;1069;-71
2023/09/17 01:14:42;;;;;;;8.18;6.60;;;;;;;;;;484681;28;1113;-71
2023/09/17 01:14:58;;;;;;;7.97;6.50;;;;;;;;;;484998;28;1295;-71
2023/09/17 01:15:13;;;;;;;7.50;6.70;;;;;;;;;;485591;28;1136;-71
2023/09/17 01:15:29;;;;;;;7.33;6.63;;;;;;;;;;485611;28;1108;-71
2023/09/17 01:15:45;;;;;;;7.20;6.50;;;;;;;;;;485646;28;1343;-71
2023/09/17 01:16:03;;;;;;;7.13;6.43;;;;;;;;;;481305;28;1060;-71
2023/09/17 01:16:19;;;;;;;7.30;6.60;;;;;;;;;;481638;28;1256;-71
2023/09/17 01:16:34;;;;;;;7.47;6.67;;;;;;;;;;482117;28;1040;-72
2023/09/17 01:16:51;;;;;;;7.47;6.78;;;;;;;;;;483925;28;1050;-71
2023/09/17 01:17:10;;;;;;;7.75;6.90;;;;;;;;;;483184;28;1089;-71
2023/09/17 01:17:27;;;;;;;7.57;6.60;;;;;;;;;;485526;28;1108;-71
2023/09/17 01:17:42;;;;;;;7.43;6.43;;;;;;;;;;484600;28;1277;-71
2023/09/17 01:17:58;;;;;;;7.77;6.40;;;;;;;;;;482817;28;1252;-71
2023/09/17 01:18:18;;;;;;;7.13;6.43;;;;;;;;;;484791;28;924;-71
2023/09/17 01:18:34;;;;;;;7.50;6.47;;;;;;;;;;482818;28;1147;-71
2023/09/17 01:18:50;;;;;;;7.18;6.43;;;;;;;;;;482302;28;955;-71
2023/09/17 01:19:05;;;;;;;7.43;6.28;;;;;;;;;;482707;28;982;-71
2023/09/17 01:19:28;;;;;;;8.63;6.37;;;;;;;;;;481469;28;1059;-71
2023/09/17 01:19:44;;;;;;;7.28;6.57;;;;;;;;;;481976;28;1172;-71
2023/09/17 01:20:00;;;;;;;7.30;6.57;;;;;;;;;;483765;28;1400;-71
2023/09/17 01:20:29;;;;;;;7.13;6.43;;;;;;;;;;483567;28;1292;-71
2023/09/17 01:20:54;;;;;;;7.32;6.63;;;;;;;;;;484626;28;1322;-71
2023/09/17 01:21:19;;;;;;;8.55;6.97;;;;;;;;;;485150;28;1014;-71
2023/09/17 01:22:02;;;;;;;8.07;6.85;;;;;;;;;;483428;28;1232;-72
2023/09/17 01:22:30;;;;;;;9.00;7.10;;;;;;;;;;482011;28;1268;-71
2023/09/17 01:22:47;;;;;;;7.93;7.07;;;;;;;;;;483193;28;1029;-71
2023/09/17 01:23:13;;;;;;;7.63;6.88;;;;;;;;;;480891;28;1163;-71
2023/09/17 01:23:36;;;;;;;8.37;7.07;;;;;;;;;;483941;28;1285;-71
2023/09/17 01:24:19;;;;;;;8.25;7.38;;;;;;;;;;484473;28;1096;-71
2023/09/17 01:24:40;;;;;;;7.93;7.10;;;;;;;;;;484992;28;1181;-71
2023/09/17 01:25:11;;;;;;;7.25;6.55;;;;;;;;;;483940;28;1334;-71
2023/09/17 01:25:56;;;;;;;8.75;7.10;;;;;;;;;;485907;28;998;-71
2023/09/17 01:26:26;;;;;;;8.57;7.25;;;;;;;;;;485465;28;1229;-71
2023/09/17 01:26:44;;;;;;;8.75;6.97;;;;;;;;;;486482;28;1088;-71
2023/09/17 01:27:02;;;;;;;8.88;7.20;;;;;;;;;;489105;28;1207;-72
2023/09/17 01:27:20;;;;;;;8.82;7.13;;;;;;;;;;490028;28;1178;-71
2023/09/17 01:27:39;;;;;;;8.68;7.10;;;;;;;;;;489445;28;1118;-71
2023/09/17 01:27:55;;;;;;;9.43;7.05;;;;;;;;;;489301;28;1010;-71
2023/09/17 01:28:12;;;;;;;8.13;6.88;;;;;;;;;;486309;28;1092;-71
2023/09/17 01:28:31;;;;;;;7.63;6.82;;;;;;;;;;487122;28;1387;-71
2023/09/17 01:28:47;;;;;;;9.48;7.40;;;;;;;;;;485800;28;1215;-71
2023/09/17 01:29:04;;;;;;;9.88;7.40;;;;;;;;;;483707;28;1883;-71
2023/09/17 01:29:23;;;;;;;8.02;7.22;;;;;;;;;;484046;28;1470;-71
2023/09/17 01:29:41;;;;;;;9.02;7.45;;;;;;;;;;483950;28;1105;-71
2023/09/17 01:29:56;;;;;;;9.13;7.35;;;;;;;;;;481827;28;1959;-71
2023/09/17 01:30:15;;;;;;;8.75;7.15;;;;;;;;;;482103;28;947;-71
2023/09/17 01:30:31;;;;;;;8.23;7.28;;;;;;;;;;484752;28;1325;-72
2023/09/17 01:30:47;;;;;;;8.00;7.25;;;;;;;;;;484803;28;1053;-71
2023/09/17 01:31:03;;;;;;;7.80;7.00;;;;;;;;;;485714;28;1083;-71
2023/09/17 01:31:18;;;;;;;7.70;6.82;;;;;;;;;;486153;28;1061;-71
2023/09/17 01:31:34;;;;;;;7.78;6.97;;;;;;;;;;485959;28;1187;-71
2023/09/17 01:31:49;;;;;;;9.20;7.37;;;;;;;;;;485117;28;1013;-71
2023/09/17 01:32:06;;;;;;;9.68;7.50;;;;;;;;;;484662;28;1464;-71
2023/09/17 01:32:22;;;;;;;8.07;7.28;;;;;;;;;;484425;28;986;-71
2023/09/17 01:32:39;;;;;;;7.93;7.13;;;;;;;;;;483772;28;1264;-71
2023/09/17 01:32:54;;;;;;;7.75;6.95;;;;;;;;;;483354;28;1073;-71
2023/09/17 01:33:10;;;;;;;8.07;7.28;;;;;;;;;;483938;28;1331;-71
2023/09/17 01:33:25;;;;;;;8.30;7.50;;;;;;;;;;485015;28;1068;-71
2023/09/17 01:33:41;;;;;;;8.13;7.10;;;;;;;;;;485608;28;1465;-71
2023/09/17 01:33:56;;;;;;;8.20;6.87;;;;;;;;;;485560;28;1269;-71
2023/09/17 01:34:12;;;;;;;8.15;7.15;;;;;;;;;;486591;28;1217;-71
2023/09/17 01:34:27;;;;;;;8.20;7.30;;;;;;;;;;486756;28;1065;-71
2023/09/17 01:34:45;;;;;;;7.90;7.10;;;;;;;;;;486915;28;1189;-71
2023/09/17 01:35:01;;;;;;;7.13;6.43;;;;;;;;;;486277;28;987;-71
2023/09/17 01:35:17;;;;;;;7.30;6.60;;;;;;;;;;486100;28;1180;-71
2023/09/17 01:35:33;;;;;;;7.80;7.00;;;;;;;;;;487161;28;1105;-71
2023/09/17 01:36:14;;;;;;;7.82;7.03;;;;;;;;;;483124;28;1072;-71
2023/09/17 01:36:29;;;;;;;7.70;6.90;;;;;;;;;;483961;28;1195;-71
2023/09/17 01:36:45;;;;;;;7.90;7.10;;;;;;;;;;483986;28;916;-71
2023/09/17 01:37:04;;;;;;;8.02;7.22;;;;;;;;;;483690;28;1004;-71
2023/09/17 01:37:23;;;;;;;7.18;6.47;;;;;;;;;;483375;28;996;-71
2023/09/17 01:37:43;;;;;;;7.43;6.47;;;;;;;;;;483484;28;943;-71
2023/09/17 01:38:02;;;;;;;8.18;6.95;;;;;;;;;;482883;28;1275;-71
2023/09/17 01:38:19;;;;;;;7.45;6.75;;;;;;;;;;482694;28;1285;-71
2023/09/17 01:38:45;;;;;;;7.38;6.57;;;;;;;;;;482764;28;1083;-71
2023/09/17 01:39:05;;;;;;;7.13;6.43;;;;;;;;;;482687;28;1379;-71
2023/09/17 01:39:24;;;;;;;6.80;6.20;;;;;;;;;;482780;28;1252;-71
2023/09/17 01:39:45;;;;;;;7.50;6.80;;;;;;;;;;482992;28;1250;-71
2023/09/17 01:40:07;;;;;;;7.63;6.85;;;;;;;;;;482375;28;1277;-71
2023/09/17 01:40:23;;;;;;;8.65;7.00;;;;;;;;;;484258;28;1215;-71
2023/09/17 01:40:41;;;;;;;7.43;6.53;;;;;;;;;;482212;28;1119;-71
2023/09/17 01:40:57;;;;;;;6.75;6.10;;;;;;;;;;483503;28;1046;-71
2023/09/17 01:41:13;;;;;;;6.93;6.22;;;;;;;;;;484203;28;947;-71
2023/09/17 01:41:29;;;;;;;7.75;6.53;;;;;;;;;;483530;28;1368;-71
2023/09/17 01:41:45;;;;;;;8.90;6.90;;;;;;;;;;485637;28;1030;-71
2023/09/17 01:42:03;;;;;;;8.18;6.70;;;;;;;;;;485635;28;967;-71
2023/09/17 01:42:19;;;;;;;7.47;6.60;;;;;;;;;;485672;28;1070;-71
2023/09/17 01:42:39;;;;;;;7.75;6.95;;;;;;;;;;487080;28;1004;-71
2023/09/17 01:42:56;;;;;;;7.65;6.82;;;;;;;;;;488152;28;1178;-71
2023/09/17 01:43:11;;;;;;;8.98;6.63;;;;;;;;;;485110;28;1225;-71
2023/09/17 01:43:27;;;;;;;8.40;6.77;;;;;;;;;;485557;28;908;-71
2023/09/17 01:43:44;;;;;;;7.40;6.70;;;;;;;;;;485080;28;1007;-71
2023/09/17 01:44:01;;;;;;;7.30;6.57;;;;;;;;;;483631;28;1314;-71
2023/09/17 01:44:18;;;;;;;7.50;6.50;;;;;;;;;;484393;28;1277;-71
2023/09/17 01:44:34;;;;;;;8.63;6.80;;;;;;;;;;483985;28;1153;-71
2023/09/17 01:44:51;;;;;;;7.72;6.65;;;;;;;;;;483934;28;1149;-71
2023/09/17 01:45:09;;;;;;;6.70;6.10;;;;;;;;;;484118;28;1118;-71
2023/09/17 01:45:26;;;;;;;6.70;6.10;;;;;;;;;;483672;28;1248;-70
2023/09/17 01:45:42;;;;;;;6.75;6.15;;;;;;;;;;482348;28;1235;-71
2023/09/17 01:46:00;;;;;;;7.22;6.30;;;;;;;;;;483326;28;1106;-71
2023/09/17 01:46:16;;;;;;;7.30;6.60;;;;;;;;;;483829;28;1128;-71
2023/09/17 01:46:34;;;;;;;7.25;6.55;;;;;;;;;;483656;28;1168;-71
2023/09/17 01:46:51;;;;;;;7.20;6.50;;;;;;;;;;483702;28;1084;-71
2023/09/17 01:47:07;;;;;;;7.47;6.68;;;;;;;;;;483674;28;1228;-71
2023/09/17 01:47:24;;;;;;;7.60;6.75;;;;;;;;;;482640;28;1078;-71
2023/09/17 01:47:42;;;;;;;7.97;6.70;;;;;;;;;;483529;28;1181;-71
2023/09/17 01:47:58;;;;;;;7.90;6.63;;;;;;;;;;482872;28;971;-71
2023/09/17 01:48:15;;;;;;;7.15;6.45;;;;;;;;;;483641;28;1212;-71
2023/09/17 01:48:32;;;;;;;7.28;6.22;;;;;;;;;;484518;28;1078;-71
2023/09/17 01:48:48;;;;;;;8.23;6.40;;;;;;;;;;483985;28;1038;-71
2023/09/17 01:49:04;;;;;;;7.28;6.25;;;;;;;;;;483874;28;1288;-71
2023/09/17 01:49:20;;;;;;;7.60;6.15;;;;;;;;;;483924;28;997;-71
2023/09/17 01:49:38;;;;;;;7.20;6.18;;;;;;;;;;484004;28;1071;-71
2023/09/17 01:49:57;;;;;;;6.85;6.07;;;;;;;;;;484187;28;1942;-71
2023/09/17 01:50:15;;;;;;;7.40;6.53;;;;;;;;;;484836;28;1074;-71
2023/09/17 01:50:30;;;;;;;7.57;6.77;;;;;;;;;;485693;28;1062;-71
2023/09/17 01:50:47;;;;;;;7.05;6.35;;;;;;;;;;485552;28;1039;-71
2023/09/17 01:51:03;;;;;;;7.90;6.40;;;;;;;;;;484145;28;1057;-71
2023/09/17 01:51:18;;;;;;;8.25;6.78;;;;;;;;;;486217;28;994;-71
2023/09/17 01:51:34;;;;;;;7.30;6.60;;;;;;;;;;485722;28;1256;-71
2023/09/17 01:51:51;;;;;;;7.78;6.63;;;;;;;;;;486018;28;1152;-71
2023/09/17 01:52:08;;;;;;;7.93;6.53;;;;;;;;;;486224;28;1050;-71
2023/09/17 01:52:26;;;;;;;7.78;6.55;;;;;;;;;;484347;28;1250;-71
2023/09/17 01:52:45;;;;;;;7.40;6.60;;;;;;;;;;482980;28;972;-71
2023/09/17 01:53:01;;;;;;;7.05;6.20;;;;;;;;;;482158;28;1090;-71
2023/09/17 01:53:16;;;;;;;7.20;6.50;;;;;;;;;;482110;28;1118;-71
2023/09/17 01:53:33;;;;;;;7.88;6.75;;;;;;;;;;483085;28;1058;-71
2023/09/17 01:53:49;;;;;;;7.57;6.70;;;;;;;;;;483843;28;1074;-71
2023/09/17 01:54:05;;;;;;;7.32;6.57;;;;;;;;;;482990;28;983;-71
2023/09/17 01:54:21;;;;;;;7.10;6.35;;;;;;;;;;483962;28;966;-71
2023/09/17 01:54:37;;;;;;;7.60;6.17;;;;;;;;;;483418;28;1067;-71
2023/09/17 01:54:53;;;;;;;6.90;5.93;;;;;;;;;;483786;28;971;-71
2023/09/17 01:55:09;;;;;;;6.65;6.05;;;;;;;;;;481843;28;1251;-71
2023/09/17 01:55:26;;;;;;;6.72;6.10;;;;;;;;;;484130;28;1065;-71
2023/09/17 01:55:41;;;;;;;6.97;6.15;;;;;;;;;;484108;28;1255;-71
2023/09/17 01:55:57;;;;;;;7.15;6.45;;;;;;;;;;483557;28;975;-71
2023/09/17 01:56:13;;;;;;;7.47;6.73;;;;;;;;;;484036;28;1008;-71
2023/09/17 01:56:28;;;;;;;7.05;6.32;;;;;;;;;;482939;28;1196;-71
2023/09/17 01:56:44;;;;;;;7.38;6.20;;;;;;;;;;483296;28;1356;-71
2023/09/17 01:56:59;;;;;;;8.07;6.40;;;;;;;;;;485195;28;1177;-71
2023/09/17 01:57:15;;;;;;;9.25;6.53;;;;;;;;;;485550;28;939;-71
2023/09/17 01:57:31;;;;;;;9.20;6.77;;;;;;;;;;485842;28;1077;-71
2023/09/17 01:57:48;;;;;;;8.82;6.93;;;;;;;;;;486162;28;1389;-71
2023/09/17 01:58:04;;;;;;;8.98;6.90;;;;;;;;;;486600;28;1082;-71
2023/09/17 01:58:21;;;;;;;7.53;6.73;;;;;;;;;;483803;28;1187;-71
2023/09/17 01:58:37;;;;;;;7.93;7.00;;;;;;;;;;485969;28;1329;-71
2023/09/17 01:58:52;;;;;;;8.67;7.10;;;;;;;;;;487537;28;1159;-71
2023/09/17 01:59:08;;;;;;;8.43;6.80;;;;;;;;;;487440;28;965;-71
2023/09/17 01:59:24;;;;;;;7.47;6.67;;;;;;;;;;486644;28;1143;-71
2023/09/17 01:59:40;;;;;;;7.70;6.82;;;;;;;;;;487307;28;1149;-71
2023/09/17 01:59:56;;;;;;;9.13;7.30;;;;;;;;;;486643;28;1124;-71
2023/09/17 02:00:16;;;;;;;9.10;7.40;;;;;;;;;;484937;28;1340;-71
2023/09/17 02:00:32;;;;;;;8.20;7.30;;;;;;;;;;486130;28;1081;-71
2023/09/17 02:00:49;;;;;;;7.60;6.90;;;;;;;;;;485194;28;920;-71
2023/09/17 02:01:04;;;;;;;7.03;6.35;;;;;;;;;;488044;28;1065;-71
2023/09/17 02:01:19;;;;;;;6.60;6.00;;;;;;;;;;486526;28;1105;-71
2023/09/17 02:01:35;;;;;;;6.70;6.10;;;;;;;;;;487850;28;953;-71
2023/09/17 02:01:51;;;;;;;6.97;6.27;;;;;;;;;;487274;28;1070;-71
2023/09/17 02:02:06;;;;;;;7.10;6.40;;;;;;;;;;489478;28;1088;-71
2023/09/17 02:02:22;;;;;;;7.37;6.67;;;;;;;;;;490325;28;1119;-71
2023/09/17 02:02:37;;;;;;;7.60;6.90;;;;;;;;;;489996;28;1093;-71
2023/09/17 02:02:53;;;;;;;7.80;7.00;;;;;;;;;;487603;28;1185;-71
2023/09/17 02:03:08;;;;;;;7.82;7.03;;;;;;;;;;487324;28;1003;-71
2023/09/17 02:03:23;;;;;;;8.20;7.07;;;;;;;;;;485447;28;1220;-71
2023/09/17 02:03:39;;;;;;;8.30;7.20;;;;;;;;;;488271;28;1070;-71
2023/09/17 02:03:55;;;;;;;7.90;7.05;;;;;;;;;;487462;28;1062;-71
2023/09/17 02:04:10;;;;;;;7.57;6.72;;;;;;;;;;486895;28;1114;-71
2023/09/17 02:04:26;;;;;;;7.40;6.60;;;;;;;;;;485861;28;1149;-71
2023/09/17 02:04:41;;;;;;;7.53;6.80;;;;;;;;;;487094;28;1197;-71
2023/09/17 02:04:57;;;;;;;8.10;7.30;;;;;;;;;;487388;28;1168;-71
2023/09/17 02:05:16;;;;;;;8.52;7.60;;;;;;;;;;486834;28;994;-71
2023/09/17 02:05:32;;;;;;;8.52;7.57;;;;;;;;;;484982;28;1148;-71
2023/09/17 02:05:48;;;;;;;9.10;7.35;;;;;;;;;;485142;28;1375;-71